sensor_id;sensor_type;location;lat;lon;timestamp;P1;durP1;ratioP1;P2;durP2;ratioP2
62984;SDS011;49080;50.062;19.892;2023-10-19T13:39:29;21.40;;;19.10;;
62984;SDS011;49080;50.062;19.892;2023-10-19T13:42:21;21.50;;;18.90;;
62984;SDS011;49080;50.062;19.892;2023-10-19T13:44:51;22.70;;;19.10;;
62984;SDS011;49080;50.062;19.892;2023-10-19T13:47:22;21.70;;;18.20;;
62984;SDS011;49080;50.062;19.892;2023-10-19T13:49:53;20.90;;;18.70;;
62984;SDS011;49080;50.062;19.892;2023-10-19T13:52:23;20.50;;;18.40;;
62984;SDS011;49080;50.062;19.892;2023-10-19T13:54:54;20.70;;;18.20;;
62984;SDS011;49080;50.062;19.892;2023-10-19T13:57:25;21.20;;;17.60;;
62984;SDS011;49080;50.062;19.892;2023-10-19T13:59:55;21.50;;;18.60;;
62984;SDS011;49080;50.062;19.892;2023-10-19T14:02:25;22.70;;;18.90;;
62984;SDS011;49080;50.062;19.892;2023-10-19T14:04:55;23.40;;;18.40;;
62984;SDS011;49080;50.062;19.892;2023-10-19T14:07:29;21.80;;;18.60;;
62984;SDS011;49080;50.062;19.892;2023-10-19T14:10:01;20.10;;;17.90;;
62984;SDS011;49080;50.062;19.892;2023-10-19T14:12:32;20.50;;;17.50;;
62984;SDS011;49080;50.062;19.892;2023-10-19T14:17:31;24.00;;;21.40;;
62984;SDS011;49080;50.062;19.892;2023-10-19T14:20:01;23.00;;;19.40;;
62984;SDS011;49080;50.062;19.892;2023-10-19T14:22:33;21.30;;;19.00;;
62984;SDS011;49080;50.062;19.892;2023-10-19T14:25:06;21.40;;;19.20;;
62984;SDS011;49080;50.062;19.892;2023-10-19T14:27:41;23.00;;;19.80;;
62984;SDS011;49080;50.062;19.892;2023-10-19T14:30:13;23.80;;;18.60;;
62984;SDS011;49080;50.062;19.892;2023-10-19T14:32:44;21.30;;;18.50;;
62984;SDS011;49080;50.062;19.892;2023-10-19T14:35:16;21.90;;;19.20;;
62984;SDS011;49080;50.062;19.892;2023-10-19T14:37:47;24.60;;;18.90;;
62984;SDS011;49080;50.062;19.892;2023-10-19T14:40:19;22.00;;;19.60;;
62984;SDS011;49080;50.062;19.892;2023-10-19T14:42:50;23.90;;;19.00;;
62984;SDS011;49080;50.062;19.892;2023-10-19T14:45:24;24.40;;;19.50;;
62984;SDS011;49080;50.062;19.892;2023-10-19T14:47:57;23.70;;;18.80;;
62984;SDS011;49080;50.062;19.892;2023-10-19T14:50:31;20.40;;;17.60;;
62984;SDS011;49080;50.062;19.892;2023-10-19T14:55:30;24.50;;;17.70;;
62984;SDS011;49080;50.062;19.892;2023-10-19T14:58:00;22.00;;;18.40;;
62984;SDS011;49080;50.062;19.892;2023-10-19T15:00:31;23.10;;;20.10;;
62984;SDS011;49080;50.062;19.892;2023-10-19T15:03:04;22.60;;;19.00;;
62984;SDS011;49080;50.062;19.892;2023-10-19T15:05:37;24.70;;;19.60;;
62984;SDS011;49080;50.062;19.892;2023-10-19T15:08:07;21.90;;;18.80;;
62984;SDS011;49080;50.062;19.892;2023-10-19T15:10:41;23.20;;;19.20;;
62984;SDS011;49080;50.062;19.892;2023-10-19T15:13:11;21.60;;;19.10;;
62984;SDS011;49080;50.062;19.892;2023-10-19T15:18:10;21.10;;;18.90;;
62984;SDS011;49080;50.062;19.892;2023-10-19T15:20:41;22.00;;;19.40;;
62984;SDS011;49080;50.062;19.892;2023-10-19T15:23:11;23.20;;;19.00;;
62984;SDS011;49080;50.062;19.892;2023-10-19T15:25:42;22.00;;;19.00;;
62984;SDS011;49080;50.062;19.892;2023-10-19T15:30:40;21.80;;;18.00;;
62984;SDS011;49080;50.062;19.892;2023-10-19T15:33:10;20.70;;;17.50;;
62984;SDS011;49080;50.062;19.892;2023-10-19T15:35:41;20.60;;;18.10;;
62984;SDS011;49080;50.062;19.892;2023-10-19T15:40:40;20.80;;;17.10;;
62984;SDS011;49080;50.062;19.892;2023-10-19T15:43:10;19.70;;;17.20;;
62984;SDS011;49080;50.062;19.892;2023-10-19T15:45:41;19.60;;;17.00;;
62984;SDS011;49080;50.062;19.892;2023-10-19T15:48:13;21.00;;;17.20;;
62984;SDS011;49080;50.062;19.892;2023-10-19T15:50:43;21.10;;;18.00;;
62984;SDS011;49080;50.062;19.892;2023-10-19T15:53:13;20.80;;;18.10;;
62984;SDS011;49080;50.062;19.892;2023-10-19T15:55:44;22.00;;;17.70;;
62984;SDS011;49080;50.062;19.892;2023-10-19T15:58:14;19.90;;;17.60;;
62984;SDS011;49080;50.062;19.892;2023-10-19T16:00:44;20.80;;;18.60;;
62984;SDS011;49080;50.062;19.892;2023-10-19T16:03:15;20.40;;;17.80;;
62984;SDS011;49080;50.062;19.892;2023-10-19T16:05:46;25.30;;;19.70;;
62984;SDS011;49080;50.062;19.892;2023-10-19T16:08:16;20.80;;;18.40;;
62984;SDS011;49080;50.062;19.892;2023-10-19T16:10:46;21.50;;;19.20;;
62984;SDS011;49080;50.062;19.892;2023-10-19T16:13:18;22.30;;;18.90;;
62984;SDS011;49080;50.062;19.892;2023-10-19T16:15:49;22.20;;;19.20;;
62984;SDS011;49080;50.062;19.892;2023-10-19T16:18:19;21.60;;;18.60;;
62984;SDS011;49080;50.062;19.892;2023-10-19T16:20:49;22.90;;;19.10;;
62984;SDS011;49080;50.062;19.892;2023-10-19T16:25:48;23.40;;;20.10;;
62984;SDS011;49080;50.062;19.892;2023-10-19T16:28:18;24.40;;;19.30;;
62984;SDS011;49080;50.062;19.892;2023-10-19T16:33:17;22.00;;;19.70;;
62984;SDS011;49080;50.062;19.892;2023-10-19T16:35:47;23.10;;;20.40;;
62984;SDS011;49080;50.062;19.892;2023-10-19T16:40:46;23.70;;;21.20;;
62984;SDS011;49080;50.062;19.892;2023-10-19T16:45:44;25.40;;;22.40;;
62984;SDS011;49080;50.062;19.892;2023-10-19T16:48:15;26.40;;;22.50;;
62984;SDS011;49080;50.062;19.892;2023-10-19T16:53:14;27.00;;;21.70;;
62984;SDS011;49080;50.062;19.892;2023-10-19T16:58:12;25.50;;;22.50;;
62984;SDS011;49080;50.062;19.892;2023-10-19T17:00:44;24.50;;;21.80;;
62984;SDS011;49080;50.062;19.892;2023-10-19T17:03:14;27.20;;;23.80;;
62984;SDS011;49080;50.062;19.892;2023-10-19T17:05:44;27.20;;;24.40;;
62984;SDS011;49080;50.062;19.892;2023-10-19T17:08:15;26.00;;;22.90;;
62984;SDS011;49080;50.062;19.892;2023-10-19T17:10:45;26.70;;;23.40;;
62984;SDS011;49080;50.062;19.892;2023-10-19T17:13:15;29.30;;;24.10;;
62984;SDS011;49080;50.062;19.892;2023-10-19T17:18:14;27.60;;;24.40;;
62984;SDS011;49080;50.062;19.892;2023-10-19T17:20:45;28.10;;;24.90;;
62984;SDS011;49080;50.062;19.892;2023-10-19T17:23:15;28.60;;;25.60;;
62984;SDS011;49080;50.062;19.892;2023-10-19T17:25:45;26.80;;;23.70;;
62984;SDS011;49080;50.062;19.892;2023-10-19T17:28:15;28.80;;;25.80;;
62984;SDS011;49080;50.062;19.892;2023-10-19T17:30:46;28.50;;;25.50;;
62984;SDS011;49080;50.062;19.892;2023-10-19T17:33:16;28.00;;;25.00;;
62984;SDS011;49080;50.062;19.892;2023-10-19T17:35:47;27.60;;;24.60;;
62984;SDS011;49080;50.062;19.892;2023-10-19T17:38:18;27.30;;;24.40;;
62984;SDS011;49080;50.062;19.892;2023-10-19T17:40:49;29.10;;;25.70;;
62984;SDS011;49080;50.062;19.892;2023-10-19T17:43:19;29.60;;;25.80;;
62984;SDS011;49080;50.062;19.892;2023-10-19T17:48:18;28.80;;;25.80;;
62984;SDS011;49080;50.062;19.892;2023-10-19T17:50:49;29.10;;;26.00;;
62984;SDS011;49080;50.062;19.892;2023-10-19T17:53:19;29.00;;;26.00;;
62984;SDS011;49080;50.062;19.892;2023-10-19T17:55:51;28.90;;;25.80;;
62984;SDS011;49080;50.062;19.892;2023-10-19T17:58:22;27.70;;;24.90;;
62984;SDS011;49080;50.062;19.892;2023-10-19T18:00:53;32.30;;;27.10;;
62984;SDS011;49080;50.062;19.892;2023-10-19T18:03:23;30.70;;;27.40;;
62984;SDS011;49080;50.062;19.892;2023-10-19T18:05:54;28.70;;;25.80;;
62984;SDS011;49080;50.062;19.892;2023-10-19T18:08:24;31.30;;;28.10;;
62984;SDS011;49080;50.062;19.892;2023-10-19T18:13:22;30.20;;;26.90;;
62984;SDS011;49080;50.062;19.892;2023-10-19T18:15:53;29.70;;;26.60;;
62984;SDS011;49080;50.062;19.892;2023-10-19T18:18:23;31.10;;;27.80;;
62984;SDS011;49080;50.062;19.892;2023-10-19T18:20:55;30.40;;;27.20;;
62984;SDS011;49080;50.062;19.892;2023-10-19T18:23:26;31.10;;;27.20;;
62984;SDS011;49080;50.062;19.892;2023-10-19T18:25:56;30.50;;;27.20;;
62984;SDS011;49080;50.062;19.892;2023-10-19T18:28:26;30.70;;;27.50;;
62984;SDS011;49080;50.062;19.892;2023-10-19T18:33:26;30.40;;;27.20;;
62984;SDS011;49080;50.062;19.892;2023-10-19T18:35:58;28.90;;;26.00;;
62984;SDS011;49080;50.062;19.892;2023-10-19T18:38:28;30.20;;;26.90;;
62984;SDS011;49080;50.062;19.892;2023-10-19T18:41:00;31.30;;;28.00;;
62984;SDS011;49080;50.062;19.892;2023-10-19T18:43:30;29.10;;;26.10;;
62984;SDS011;49080;50.062;19.892;2023-10-19T18:46:01;31.10;;;28.00;;
62984;SDS011;49080;50.062;19.892;2023-10-19T18:48:32;33.00;;;28.20;;
62984;SDS011;49080;50.062;19.892;2023-10-19T18:51:04;30.50;;;27.40;;
62984;SDS011;49080;50.062;19.892;2023-10-19T18:53:34;30.40;;;27.20;;
62984;SDS011;49080;50.062;19.892;2023-10-19T18:56:05;32.20;;;28.80;;
62984;SDS011;49080;50.062;19.892;2023-10-19T18:58:35;30.50;;;27.30;;
62984;SDS011;49080;50.062;19.892;2023-10-19T19:01:06;31.50;;;27.40;;
62984;SDS011;49080;50.062;19.892;2023-10-19T19:03:37;31.80;;;28.40;;
62984;SDS011;49080;50.062;19.892;2023-10-19T19:06:07;30.90;;;27.00;;
62984;SDS011;49080;50.062;19.892;2023-10-19T19:08:39;32.00;;;28.60;;
62984;SDS011;49080;50.062;19.892;2023-10-19T19:13:39;30.80;;;27.60;;
62984;SDS011;49080;50.062;19.892;2023-10-19T19:16:10;31.80;;;28.50;;
62984;SDS011;49080;50.062;19.892;2023-10-19T19:18:41;30.70;;;27.50;;
62984;SDS011;49080;50.062;19.892;2023-10-19T19:21:11;31.10;;;27.70;;
62984;SDS011;49080;50.062;19.892;2023-10-19T19:23:42;31.10;;;27.80;;
62984;SDS011;49080;50.062;19.892;2023-10-19T19:28:40;31.70;;;28.40;;
62984;SDS011;49080;50.062;19.892;2023-10-19T19:31:13;31.80;;;28.30;;
62984;SDS011;49080;50.062;19.892;2023-10-19T19:33:46;32.10;;;28.70;;
62984;SDS011;49080;50.062;19.892;2023-10-19T19:36:16;30.90;;;27.60;;
62984;SDS011;49080;50.062;19.892;2023-10-19T19:38:46;31.40;;;28.00;;
62984;SDS011;49080;50.062;19.892;2023-10-19T19:41:18;32.60;;;28.20;;
62984;SDS011;49080;50.062;19.892;2023-10-19T19:43:48;32.70;;;29.20;;
62984;SDS011;49080;50.062;19.892;2023-10-19T19:46:18;31.40;;;28.00;;
62984;SDS011;49080;50.062;19.892;2023-10-19T19:48:48;32.50;;;29.20;;
62984;SDS011;49080;50.062;19.892;2023-10-19T19:51:18;32.30;;;29.00;;
62984;SDS011;49080;50.062;19.892;2023-10-19T19:56:18;32.50;;;29.00;;
62984;SDS011;49080;50.062;19.892;2023-10-19T19:58:48;32.10;;;28.80;;
62984;SDS011;49080;50.062;19.892;2023-10-19T20:03:47;32.20;;;28.80;;
62984;SDS011;49080;50.062;19.892;2023-10-19T20:06:17;33.80;;;30.10;;
62984;SDS011;49080;50.062;19.892;2023-10-19T20:08:47;31.20;;;27.90;;
62984;SDS011;49080;50.062;19.892;2023-10-19T20:11:18;31.10;;;27.70;;
62984;SDS011;49080;50.062;19.892;2023-10-19T20:13:48;32.30;;;28.80;;
62984;SDS011;49080;50.062;19.892;2023-10-19T20:16:19;31.70;;;27.30;;
62984;SDS011;49080;50.062;19.892;2023-10-19T20:18:49;30.60;;;27.40;;
62984;SDS011;49080;50.062;19.892;2023-10-19T20:21:20;30.10;;;27.00;;
62984;SDS011;49080;50.062;19.892;2023-10-19T20:26:18;30.30;;;27.10;;
62984;SDS011;49080;50.062;19.892;2023-10-19T20:28:49;30.70;;;27.40;;
62984;SDS011;49080;50.062;19.892;2023-10-19T20:31:19;32.50;;;28.60;;
62984;SDS011;49080;50.062;19.892;2023-10-19T20:33:51;31.10;;;27.80;;
62984;SDS011;49080;50.062;19.892;2023-10-19T20:38:50;29.90;;;26.80;;
62984;SDS011;49080;50.062;19.892;2023-10-19T20:41:20;30.10;;;26.30;;
62984;SDS011;49080;50.062;19.892;2023-10-19T20:43:51;28.10;;;25.20;;
62984;SDS011;49080;50.062;19.892;2023-10-19T20:46:23;29.80;;;26.70;;
62984;SDS011;49080;50.062;19.892;2023-10-19T20:48:55;29.60;;;26.70;;
62984;SDS011;49080;50.062;19.892;2023-10-19T20:53:54;30.10;;;26.90;;
62984;SDS011;49080;50.062;19.892;2023-10-19T20:58:53;28.70;;;25.70;;
62984;SDS011;49080;50.062;19.892;2023-10-19T21:01:23;30.10;;;26.90;;
62984;SDS011;49080;50.062;19.892;2023-10-19T21:03:53;30.30;;;26.70;;
62984;SDS011;49080;50.062;19.892;2023-10-19T21:06:24;29.50;;;25.90;;
62984;SDS011;49080;50.062;19.892;2023-10-19T21:08:55;30.70;;;27.00;;
62984;SDS011;49080;50.062;19.892;2023-10-19T21:11:25;29.20;;;26.10;;
62984;SDS011;49080;50.062;19.892;2023-10-19T21:13:56;29.20;;;26.20;;
62984;SDS011;49080;50.062;19.892;2023-10-19T21:16:27;27.20;;;24.30;;
62984;SDS011;49080;50.062;19.892;2023-10-19T21:18:57;27.60;;;24.80;;
62984;SDS011;49080;50.062;19.892;2023-10-19T21:21:30;29.30;;;26.30;;
62984;SDS011;49080;50.062;19.892;2023-10-19T21:24:01;29.00;;;26.00;;
62984;SDS011;49080;50.062;19.892;2023-10-19T21:26:32;29.50;;;26.40;;
62984;SDS011;49080;50.062;19.892;2023-10-19T21:29:03;28.90;;;26.00;;
62984;SDS011;49080;50.062;19.892;2023-10-19T21:31:33;27.70;;;24.80;;
62984;SDS011;49080;50.062;19.892;2023-10-19T21:34:03;27.60;;;24.80;;
62984;SDS011;49080;50.062;19.892;2023-10-19T21:39:02;28.70;;;23.80;;
62984;SDS011;49080;50.062;19.892;2023-10-19T21:41:33;26.80;;;23.90;;
62984;SDS011;49080;50.062;19.892;2023-10-19T21:44:03;27.20;;;24.30;;
62984;SDS011;49080;50.062;19.892;2023-10-19T21:46:34;26.80;;;23.40;;
62984;SDS011;49080;50.062;19.892;2023-10-19T21:49:04;25.80;;;23.10;;
62984;SDS011;49080;50.062;19.892;2023-10-19T21:51:34;25.80;;;23.00;;
62984;SDS011;49080;50.062;19.892;2023-10-19T21:56:33;25.70;;;22.90;;
62984;SDS011;49080;50.062;19.892;2023-10-19T21:59:04;25.20;;;22.50;;
62984;SDS011;49080;50.062;19.892;2023-10-19T22:01:34;25.10;;;22.40;;
62984;SDS011;49080;50.062;19.892;2023-10-19T22:06:33;25.10;;;22.40;;
62984;SDS011;49080;50.062;19.892;2023-10-19T22:09:03;24.60;;;22.10;;
62984;SDS011;49080;50.062;19.892;2023-10-19T22:11:35;25.10;;;22.60;;
62984;SDS011;49080;50.062;19.892;2023-10-19T22:14:05;25.20;;;22.50;;
62984;SDS011;49080;50.062;19.892;2023-10-19T22:16:36;22.80;;;20.50;;
62984;SDS011;49080;50.062;19.892;2023-10-19T22:21:34;25.30;;;22.70;;
62984;SDS011;49080;50.062;19.892;2023-10-19T22:24:07;25.70;;;23.00;;
62984;SDS011;49080;50.062;19.892;2023-10-19T22:26:37;25.20;;;22.60;;
62984;SDS011;49080;50.062;19.892;2023-10-19T22:29:08;26.00;;;23.20;;
62984;SDS011;49080;50.062;19.892;2023-10-19T22:31:38;27.00;;;23.50;;
62984;SDS011;49080;50.062;19.892;2023-10-19T22:34:10;26.20;;;23.40;;
62984;SDS011;49080;50.062;19.892;2023-10-19T22:36:41;24.60;;;22.10;;
62984;SDS011;49080;50.062;19.892;2023-10-19T22:39:11;26.20;;;23.60;;
62984;SDS011;49080;50.062;19.892;2023-10-19T22:41:42;24.70;;;22.00;;
62984;SDS011;49080;50.062;19.892;2023-10-19T22:44:12;25.50;;;22.90;;
62984;SDS011;49080;50.062;19.892;2023-10-19T22:46:42;25.60;;;22.40;;
62984;SDS011;49080;50.062;19.892;2023-10-19T22:49:13;25.00;;;22.30;;
62984;SDS011;49080;50.062;19.892;2023-10-19T22:51:43;24.80;;;22.20;;
62984;SDS011;49080;50.062;19.892;2023-10-19T22:54:13;26.70;;;23.50;;
62984;SDS011;49080;50.062;19.892;2023-10-19T22:59:12;25.50;;;20.60;;
62984;SDS011;49080;50.062;19.892;2023-10-19T23:01:43;24.30;;;21.90;;
62984;SDS011;49080;50.062;19.892;2023-10-19T23:04:13;25.10;;;22.00;;
62984;SDS011;49080;50.062;19.892;2023-10-19T23:09:11;28.10;;;24.20;;
62984;SDS011;49080;50.062;19.892;2023-10-19T23:11:46;26.00;;;23.20;;
62984;SDS011;49080;50.062;19.892;2023-10-19T23:14:21;26.40;;;23.70;;
62984;SDS011;49080;50.062;19.892;2023-10-19T23:16:51;25.90;;;23.20;;
62984;SDS011;49080;50.062;19.892;2023-10-19T23:19:22;25.70;;;23.00;;
62984;SDS011;49080;50.062;19.892;2023-10-19T23:21:52;28.30;;;24.80;;
62984;SDS011;49080;50.062;19.892;2023-10-19T23:26:58;26.50;;;23.80;;
62984;SDS011;49080;50.062;19.892;2023-10-19T23:29:28;27.40;;;24.60;;
62984;SDS011;49080;50.062;19.892;2023-10-19T23:32:00;26.60;;;23.90;;
62984;SDS011;49080;50.062;19.892;2023-10-19T23:34:30;27.20;;;24.30;;
62984;SDS011;49080;50.062;19.892;2023-10-19T23:37:01;26.20;;;23.30;;
62984;SDS011;49080;50.062;19.892;2023-10-19T23:42:03;27.60;;;24.70;;
62984;SDS011;49080;50.062;19.892;2023-10-19T23:44:34;27.90;;;25.10;;
62984;SDS011;49080;50.062;19.892;2023-10-19T23:47:06;27.40;;;24.50;;
62984;SDS011;49080;50.062;19.892;2023-10-19T23:49:36;27.10;;;24.20;;
62984;SDS011;49080;50.062;19.892;2023-10-19T23:52:06;26.00;;;23.30;;
62984;SDS011;49080;50.062;19.892;2023-10-19T23:57:05;27.10;;;24.20;;
62984;SDS011;49080;50.062;19.892;2023-10-19T23:59:35;26.10;;;23.00;;
